TimeCST,TemperatureF,Dew PointF,Humidity,Sea Level PressureIn,VisibilityMPH,Wind Direction,Wind SpeedMPH,Gust SpeedMPH,PrecipitationIn,Events,Conditions,WindDirDegrees,DateUTC
12:52 AM,25.0,19.0,78,29.79,-9999.0,WSW,11.5,-,N/A,,Unknown,250,2013-01-07 06:52:00
1:52 AM,25.0,18.0,75,29.78,-9999.0,West,12.7,-,N/A,,Unknown,260,2013-01-07 07:52:00
2:52 AM,30.0,21.0,69,29.80,-9999.0,West,20.7,-,N/A,,Unknown,270,2013-01-07 08:52:00
3:52 AM,26.1,19.0,75,29.82,-9999.0,West,13.8,-,N/A,,Unknown,270,2013-01-07 09:52:00
4:52 AM,24.1,17.1,75,29.82,-9999.0,West,12.7,-,N/A,,Unknown,270,2013-01-07 10:52:00
5:52 AM,21.9,17.1,82,29.83,-9999.0,West,11.5,-,N/A,,Unknown,260,2013-01-07 11:52:00
6:52 AM,21.0,16.0,81,29.83,-9999.0,West,10.4,-,N/A,,Unknown,260,2013-01-07 12:52:00
7:52 AM,19.9,15.1,81,29.85,-9999.0,WSW,12.7,-,N/A,,Unknown,240,2013-01-07 13:52:00
8:52 AM,19.9,14.0,78,29.86,-9999.0,WSW,10.4,-,N/A,,Unknown,250,2013-01-07 14:52:00
9:52 AM,23.0,15.1,72,29.89,-9999.0,West,11.5,-,N/A,,Unknown,270,2013-01-07 15:52:00
10:52 AM,25.0,17.1,72,29.89,-9999.0,West,13.8,-,N/A,,Unknown,270,2013-01-07 16:52:00
11:52 AM,27.0,19.0,72,29.88,-9999.0,West,12.7,-,N/A,,Unknown,270,2013-01-07 17:52:00
12:52 PM,27.0,19.0,72,29.87,-9999.0,West,10.4,-,N/A,,Unknown,260,2013-01-07 18:52:00
1:52 PM,28.9,19.9,69,29.88,-9999.0,West,10.4,-,N/A,,Unknown,280,2013-01-07 19:52:00
2:52 PM,28.9,19.9,69,29.88,-9999.0,West,8.1,-,N/A,,Unknown,280,2013-01-07 20:52:00
3:52 PM,26.1,19.0,75,29.89,-9999.0,West,3.5,-,N/A,,Unknown,280,2013-01-07 21:52:00
4:52 PM,21.0,14.0,74,29.90,-9999.0,WSW,5.8,-,N/A,,Unknown,250,2013-01-07 22:52:00
5:52 PM,17.1,14.0,88,29.91,-9999.0,SW,4.6,-,N/A,,Unknown,230,2013-01-07 23:52:00
6:52 PM,12.9,10.0,88,29.91,-9999.0,SW,4.6,-,N/A,,Unknown,220,2013-01-08 00:52:00
7:52 PM,12.9,10.0,88,29.91,-9999.0,South,4.6,-,N/A,,Unknown,180,2013-01-08 01:52:00
8:52 PM,12.0,10.0,92,29.89,-9999.0,Calm,Calm,-,N/A,,Unknown,0,2013-01-08 02:52:00
9:52 PM,14.0,10.0,84,29.86,-9999.0,Calm,Calm,-,N/A,,Unknown,0,2013-01-08 03:52:00
10:52 PM,12.9,10.9,92,29.84,-9999.0,Calm,Calm,-,N/A,,Unknown,0,2013-01-08 04:52:00
11:52 PM,10.9,9.0,92,29.83,-9999.0,South,3.5,-,N/A,,Unknown,170,2013-01-08 05:52:00